sensor_id;sensor_type;location;lat;lon;timestamp;P1;durP1;ratioP1;P2;durP2;ratioP2
13218;SDS011;6674;49.152;11.918;2022-10-16T00:02:01;1.60;;;1.50;;
13218;SDS011;6674;49.152;11.918;2022-10-16T00:04:28;1.63;;;1.53;;
13218;SDS011;6674;49.152;11.918;2022-10-16T00:06:56;2.80;;;1.60;;
13218;SDS011;6674;49.152;11.918;2022-10-16T00:09:25;1.20;;;1.20;;
13218;SDS011;6674;49.152;11.918;2022-10-16T00:11:54;2.07;;;1.70;;
13218;SDS011;6674;49.152;11.918;2022-10-16T00:14:21;2.53;;;2.10;;
13218;SDS011;6674;49.152;11.918;2022-10-16T00:16:49;2.90;;;1.63;;
13218;SDS011;6674;49.152;11.918;2022-10-16T00:19:16;1.90;;;1.80;;
13218;SDS011;6674;49.152;11.918;2022-10-16T00:21:56;2.77;;;1.90;;
13218;SDS011;6674;49.152;11.918;2022-10-16T00:24:25;2.13;;;1.90;;
13218;SDS011;6674;49.152;11.918;2022-10-16T00:26:53;1.93;;;1.80;;
13218;SDS011;6674;49.152;11.918;2022-10-16T00:29:19;3.07;;;2.00;;
13218;SDS011;6674;49.152;11.918;2022-10-16T00:31:46;1.70;;;1.60;;
13218;SDS011;6674;49.152;11.918;2022-10-16T00:34:14;1.60;;;1.50;;
13218;SDS011;6674;49.152;11.918;2022-10-16T00:36:41;1.50;;;1.40;;
13218;SDS011;6674;49.152;11.918;2022-10-16T00:39:09;2.10;;;1.90;;
13218;SDS011;6674;49.152;11.918;2022-10-16T00:41:48;2.70;;;2.50;;
13218;SDS011;6674;49.152;11.918;2022-10-16T00:47:10;1.90;;;1.80;;
13218;SDS011;6674;49.152;11.918;2022-10-16T00:49:39;1.70;;;1.50;;
13218;SDS011;6674;49.152;11.918;2022-10-16T00:52:12;1.60;;;1.50;;
13218;SDS011;6674;49.152;11.918;2022-10-16T00:54:42;2.10;;;1.90;;
13218;SDS011;6674;49.152;11.918;2022-10-16T00:57:08;2.40;;;1.77;;
13218;SDS011;6674;49.152;11.918;2022-10-16T00:59:36;2.43;;;2.23;;
13218;SDS011;6674;49.152;11.918;2022-10-16T01:02:15;2.97;;;2.43;;
13218;SDS011;6674;49.152;11.918;2022-10-16T01:04:44;2.30;;;2.10;;
13218;SDS011;6674;49.152;11.918;2022-10-16T01:07:41;1.70;;;1.60;;
13218;SDS011;6674;49.152;11.918;2022-10-16T01:10:17;2.20;;;2.00;;
13218;SDS011;6674;49.152;11.918;2022-10-16T01:12:54;2.87;;;2.23;;
13218;SDS011;6674;49.152;11.918;2022-10-16T01:15:33;2.40;;;2.20;;
13218;SDS011;6674;49.152;11.918;2022-10-16T01:18:05;1.90;;;1.80;;
13218;SDS011;6674;49.152;11.918;2022-10-16T01:20:39;2.00;;;1.80;;
13218;SDS011;6674;49.152;11.918;2022-10-16T01:23:19;3.37;;;2.30;;
13218;SDS011;6674;49.152;11.918;2022-10-16T01:26:03;2.47;;;2.27;;
13218;SDS011;6674;49.152;11.918;2022-10-16T01:28:43;2.20;;;2.00;;
13218;SDS011;6674;49.152;11.918;2022-10-16T01:31:17;3.03;;;2.10;;
13218;SDS011;6674;49.152;11.918;2022-10-16T01:34:05;2.20;;;2.03;;
13218;SDS011;6674;49.152;11.918;2022-10-16T01:36:39;2.13;;;1.67;;
13218;SDS011;6674;49.152;11.918;2022-10-16T01:39:09;2.00;;;1.90;;
13218;SDS011;6674;49.152;11.918;2022-10-16T01:41:46;2.00;;;1.80;;
13218;SDS011;6674;49.152;11.918;2022-10-16T01:44:29;2.17;;;1.97;;
13218;SDS011;6674;49.152;11.918;2022-10-16T01:47:13;2.07;;;1.87;;
13218;SDS011;6674;49.152;11.918;2022-10-16T01:49:44;2.43;;;2.20;;
13218;SDS011;6674;49.152;11.918;2022-10-16T01:52:12;2.03;;;1.93;;
13218;SDS011;6674;49.152;11.918;2022-10-16T01:54:46;2.77;;;2.10;;
13218;SDS011;6674;49.152;11.918;2022-10-16T01:57:15;2.40;;;2.20;;
13218;SDS011;6674;49.152;11.918;2022-10-16T01:59:46;3.23;;;2.93;;
13218;SDS011;6674;49.152;11.918;2022-10-16T02:02:15;5.60;;;2.63;;
13218;SDS011;6674;49.152;11.918;2022-10-16T02:04:51;2.53;;;2.27;;
13218;SDS011;6674;49.152;11.918;2022-10-16T02:07:23;3.30;;;3.00;;
13218;SDS011;6674;49.152;11.918;2022-10-16T02:09:56;2.93;;;2.63;;
13218;SDS011;6674;49.152;11.918;2022-10-16T02:12:30;6.17;;;3.10;;
13218;SDS011;6674;49.152;11.918;2022-10-16T02:15:00;5.13;;;3.00;;
13218;SDS011;6674;49.152;11.918;2022-10-16T02:17:27;2.70;;;2.30;;
13218;SDS011;6674;49.152;11.918;2022-10-16T02:19:54;3.00;;;2.80;;
13218;SDS011;6674;49.152;11.918;2022-10-16T02:22:25;2.30;;;2.20;;
13218;SDS011;6674;49.152;11.918;2022-10-16T02:24:55;2.80;;;2.57;;
13218;SDS011;6674;49.152;11.918;2022-10-16T02:27:25;2.27;;;2.07;;
13218;SDS011;6674;49.152;11.918;2022-10-16T02:29:58;2.53;;;2.33;;
13218;SDS011;6674;49.152;11.918;2022-10-16T02:32:35;2.03;;;1.93;;
13218;SDS011;6674;49.152;11.918;2022-10-16T02:35:04;1.80;;;1.70;;
13218;SDS011;6674;49.152;11.918;2022-10-16T02:37:33;3.87;;;2.67;;
13218;SDS011;6674;49.152;11.918;2022-10-16T02:40:00;3.20;;;2.90;;
13218;SDS011;6674;49.152;11.918;2022-10-16T02:42:28;3.67;;;3.03;;
13218;SDS011;6674;49.152;11.918;2022-10-16T02:44:57;2.73;;;2.53;;
13218;SDS011;6674;49.152;11.918;2022-10-16T02:47:25;3.13;;;2.80;;
13218;SDS011;6674;49.152;11.918;2022-10-16T02:49:53;3.13;;;2.77;;
13218;SDS011;6674;49.152;11.918;2022-10-16T02:52:20;2.83;;;2.53;;
13218;SDS011;6674;49.152;11.918;2022-10-16T02:54:48;3.00;;;2.80;;
13218;SDS011;6674;49.152;11.918;2022-10-16T02:57:15;2.97;;;2.67;;
13218;SDS011;6674;49.152;11.918;2022-10-16T02:59:41;3.70;;;2.67;;
13218;SDS011;6674;49.152;11.918;2022-10-16T03:02:08;2.77;;;2.57;;
13218;SDS011;6674;49.152;11.918;2022-10-16T03:04:37;2.53;;;2.33;;
13218;SDS011;6674;49.152;11.918;2022-10-16T03:07:04;3.30;;;2.53;;
13218;SDS011;6674;49.152;11.918;2022-10-16T03:09:31;2.43;;;2.23;;
13218;SDS011;6674;49.152;11.918;2022-10-16T03:11:57;2.97;;;2.53;;
13218;SDS011;6674;49.152;11.918;2022-10-16T03:14:24;2.00;;;1.80;;
13218;SDS011;6674;49.152;11.918;2022-10-16T03:16:50;3.33;;;3.03;;
13218;SDS011;6674;49.152;11.918;2022-10-16T03:19:17;3.30;;;2.63;;
13218;SDS011;6674;49.152;11.918;2022-10-16T03:21:46;3.33;;;2.60;;
13218;SDS011;6674;49.152;11.918;2022-10-16T03:24:12;2.90;;;2.67;;
13218;SDS011;6674;49.152;11.918;2022-10-16T03:26:39;3.17;;;2.40;;
13218;SDS011;6674;49.152;11.918;2022-10-16T03:29:06;3.37;;;2.53;;
13218;SDS011;6674;49.152;11.918;2022-10-16T03:31:32;4.10;;;2.20;;
13218;SDS011;6674;49.152;11.918;2022-10-16T03:33:59;2.23;;;2.10;;
13218;SDS011;6674;49.152;11.918;2022-10-16T03:36:26;1.63;;;1.53;;
13218;SDS011;6674;49.152;11.918;2022-10-16T03:38:54;2.57;;;1.80;;
13218;SDS011;6674;49.152;11.918;2022-10-16T03:41:20;2.27;;;2.07;;
13218;SDS011;6674;49.152;11.918;2022-10-16T03:43:47;1.83;;;1.73;;
13218;SDS011;6674;49.152;11.918;2022-10-16T03:46:13;2.20;;;2.03;;
13218;SDS011;6674;49.152;11.918;2022-10-16T03:48:40;1.63;;;1.53;;
13218;SDS011;6674;49.152;11.918;2022-10-16T03:51:07;1.70;;;1.60;;
13218;SDS011;6674;49.152;11.918;2022-10-16T03:53:33;1.90;;;1.80;;
13218;SDS011;6674;49.152;11.918;2022-10-16T03:56:01;1.67;;;1.57;;
13218;SDS011;6674;49.152;11.918;2022-10-16T03:58:28;3.07;;;2.37;;
13218;SDS011;6674;49.152;11.918;2022-10-16T04:00:55;2.57;;;2.37;;
13218;SDS011;6674;49.152;11.918;2022-10-16T04:03:21;2.20;;;2.00;;
13218;SDS011;6674;49.152;11.918;2022-10-16T04:05:48;3.70;;;2.60;;
13218;SDS011;6674;49.152;11.918;2022-10-16T04:08:16;2.70;;;2.50;;
13218;SDS011;6674;49.152;11.918;2022-10-16T04:10:44;3.20;;;2.50;;
13218;SDS011;6674;49.152;11.918;2022-10-16T04:13:13;2.73;;;2.53;;
13218;SDS011;6674;49.152;11.918;2022-10-16T04:15:41;2.80;;;2.47;;
13218;SDS011;6674;49.152;11.918;2022-10-16T04:18:07;2.83;;;2.50;;
13218;SDS011;6674;49.152;11.918;2022-10-16T04:20:34;3.27;;;2.30;;
13218;SDS011;6674;49.152;11.918;2022-10-16T04:23:02;2.43;;;2.23;;
13218;SDS011;6674;49.152;11.918;2022-10-16T04:25:30;4.23;;;2.80;;
13218;SDS011;6674;49.152;11.918;2022-10-16T04:27:56;2.43;;;2.20;;
13218;SDS011;6674;49.152;11.918;2022-10-16T04:30:26;3.57;;;2.50;;
13218;SDS011;6674;49.152;11.918;2022-10-16T04:32:53;5.37;;;3.03;;
13218;SDS011;6674;49.152;11.918;2022-10-16T04:35:20;32.30;;;4.23;;
13218;SDS011;6674;49.152;11.918;2022-10-16T04:37:48;4.67;;;2.53;;
13218;SDS011;6674;49.152;11.918;2022-10-16T04:40:15;3.30;;;2.37;;
13218;SDS011;6674;49.152;11.918;2022-10-16T04:42:42;3.37;;;2.40;;
13218;SDS011;6674;49.152;11.918;2022-10-16T04:45:09;2.20;;;2.00;;
13218;SDS011;6674;49.152;11.918;2022-10-16T04:47:37;2.70;;;2.50;;
13218;SDS011;6674;49.152;11.918;2022-10-16T04:50:04;3.77;;;2.80;;
13218;SDS011;6674;49.152;11.918;2022-10-16T04:52:32;3.20;;;3.00;;
13218;SDS011;6674;49.152;11.918;2022-10-16T04:54:59;2.90;;;2.57;;
13218;SDS011;6674;49.152;11.918;2022-10-16T04:57:27;3.00;;;2.80;;
13218;SDS011;6674;49.152;11.918;2022-10-16T04:59:54;3.17;;;2.87;;
13218;SDS011;6674;49.152;11.918;2022-10-16T05:02:22;3.20;;;2.90;;
13218;SDS011;6674;49.152;11.918;2022-10-16T05:04:50;4.10;;;2.67;;
13218;SDS011;6674;49.152;11.918;2022-10-16T05:07:17;4.40;;;2.83;;
13218;SDS011;6674;49.152;11.918;2022-10-16T05:09:44;3.40;;;2.93;;
13218;SDS011;6674;49.152;11.918;2022-10-16T05:12:11;2.90;;;2.70;;
13218;SDS011;6674;49.152;11.918;2022-10-16T05:14:38;3.33;;;2.93;;
13218;SDS011;6674;49.152;11.918;2022-10-16T05:17:05;3.40;;;2.90;;
13218;SDS011;6674;49.152;11.918;2022-10-16T05:19:32;3.80;;;2.77;;
13218;SDS011;6674;49.152;11.918;2022-10-16T05:22:01;3.10;;;2.80;;
13218;SDS011;6674;49.152;11.918;2022-10-16T05:24:28;4.57;;;2.83;;
13218;SDS011;6674;49.152;11.918;2022-10-16T05:26:55;4.20;;;3.13;;
13218;SDS011;6674;49.152;11.918;2022-10-16T05:29:22;3.07;;;2.83;;
13218;SDS011;6674;49.152;11.918;2022-10-16T05:31:50;4.30;;;2.90;;
13218;SDS011;6674;49.152;11.918;2022-10-16T05:34:17;2.33;;;2.10;;
13218;SDS011;6674;49.152;11.918;2022-10-16T05:36:45;3.17;;;2.80;;
13218;SDS011;6674;49.152;11.918;2022-10-16T05:39:14;2.47;;;2.30;;
13218;SDS011;6674;49.152;11.918;2022-10-16T05:41:42;2.47;;;2.10;;
13218;SDS011;6674;49.152;11.918;2022-10-16T05:44:09;2.77;;;2.50;;
13218;SDS011;6674;49.152;11.918;2022-10-16T05:46:35;4.07;;;3.77;;
13218;SDS011;6674;49.152;11.918;2022-10-16T05:49:03;4.63;;;3.83;;
13218;SDS011;6674;49.152;11.918;2022-10-16T05:51:30;4.73;;;4.20;;
13218;SDS011;6674;49.152;11.918;2022-10-16T05:53:59;4.50;;;4.10;;
13218;SDS011;6674;49.152;11.918;2022-10-16T05:56:27;4.00;;;3.70;;
13218;SDS011;6674;49.152;11.918;2022-10-16T05:58:55;22.37;;;5.17;;
13218;SDS011;6674;49.152;11.918;2022-10-16T06:01:21;4.10;;;3.70;;
13218;SDS011;6674;49.152;11.918;2022-10-16T06:03:49;7.57;;;4.40;;
13218;SDS011;6674;49.152;11.918;2022-10-16T06:06:17;3.40;;;3.17;;
13218;SDS011;6674;49.152;11.918;2022-10-16T06:08:46;4.67;;;3.93;;
13218;SDS011;6674;49.152;11.918;2022-10-16T06:11:16;4.20;;;3.90;;
13218;SDS011;6674;49.152;11.918;2022-10-16T06:13:48;4.47;;;4.07;;
13218;SDS011;6674;49.152;11.918;2022-10-16T06:16:15;5.83;;;5.17;;
13218;SDS011;6674;49.152;11.918;2022-10-16T06:18:42;5.00;;;4.67;;
13218;SDS011;6674;49.152;11.918;2022-10-16T06:21:09;4.73;;;4.23;;
13218;SDS011;6674;49.152;11.918;2022-10-16T06:23:38;4.50;;;4.20;;
13218;SDS011;6674;49.152;11.918;2022-10-16T06:26:06;5.93;;;5.30;;
13218;SDS011;6674;49.152;11.918;2022-10-16T06:28:33;5.73;;;5.23;;
13218;SDS011;6674;49.152;11.918;2022-10-16T06:31:13;5.40;;;5.00;;
13218;SDS011;6674;49.152;11.918;2022-10-16T06:33:40;6.17;;;5.77;;
13218;SDS011;6674;49.152;11.918;2022-10-16T06:36:08;5.60;;;5.10;;
13218;SDS011;6674;49.152;11.918;2022-10-16T06:38:37;5.70;;;5.20;;
13218;SDS011;6674;49.152;11.918;2022-10-16T06:41:04;5.73;;;5.23;;
13218;SDS011;6674;49.152;11.918;2022-10-16T06:43:32;5.10;;;4.80;;
13218;SDS011;6674;49.152;11.918;2022-10-16T06:46:00;5.37;;;4.97;;
13218;SDS011;6674;49.152;11.918;2022-10-16T06:48:29;5.73;;;5.33;;
13218;SDS011;6674;49.152;11.918;2022-10-16T06:50:57;5.10;;;4.80;;
13218;SDS011;6674;49.152;11.918;2022-10-16T06:53:25;6.13;;;5.53;;
13218;SDS011;6674;49.152;11.918;2022-10-16T06:55:53;6.53;;;5.63;;
13218;SDS011;6674;49.152;11.918;2022-10-16T06:58:20;5.43;;;5.07;;
13218;SDS011;6674;49.152;11.918;2022-10-16T07:00:47;5.37;;;4.97;;
13218;SDS011;6674;49.152;11.918;2022-10-16T07:03:14;5.30;;;4.90;;
13218;SDS011;6674;49.152;11.918;2022-10-16T07:05:42;4.87;;;4.47;;
13218;SDS011;6674;49.152;11.918;2022-10-16T07:08:09;4.70;;;4.40;;
13218;SDS011;6674;49.152;11.918;2022-10-16T07:10:35;5.27;;;4.87;;
13218;SDS011;6674;49.152;11.918;2022-10-16T07:13:02;5.60;;;5.20;;
13218;SDS011;6674;49.152;11.918;2022-10-16T07:15:29;6.10;;;5.50;;
13218;SDS011;6674;49.152;11.918;2022-10-16T07:17:56;5.10;;;4.70;;
13218;SDS011;6674;49.152;11.918;2022-10-16T07:20:22;4.90;;;4.50;;
13218;SDS011;6674;49.152;11.918;2022-10-16T07:22:50;5.03;;;4.70;;
13218;SDS011;6674;49.152;11.918;2022-10-16T07:25:18;6.07;;;5.23;;
13218;SDS011;6674;49.152;11.918;2022-10-16T07:27:45;4.37;;;3.97;;
13218;SDS011;6674;49.152;11.918;2022-10-16T07:30:12;4.17;;;3.87;;
13218;SDS011;6674;49.152;11.918;2022-10-16T07:32:39;3.97;;;3.77;;
13218;SDS011;6674;49.152;11.918;2022-10-16T07:35:07;5.40;;;4.90;;
13218;SDS011;6674;49.152;11.918;2022-10-16T07:37:34;4.60;;;4.20;;
13218;SDS011;6674;49.152;11.918;2022-10-16T07:40:02;5.47;;;4.97;;
13218;SDS011;6674;49.152;11.918;2022-10-16T07:42:31;4.63;;;4.23;;
13218;SDS011;6674;49.152;11.918;2022-10-16T07:45:00;5.10;;;4.77;;
13218;SDS011;6674;49.152;11.918;2022-10-16T07:47:27;5.10;;;4.70;;
13218;SDS011;6674;49.152;11.918;2022-10-16T07:49:53;5.10;;;4.70;;
13218;SDS011;6674;49.152;11.918;2022-10-16T07:52:21;5.20;;;4.67;;
13218;SDS011;6674;49.152;11.918;2022-10-16T07:54:48;4.60;;;4.17;;
13218;SDS011;6674;49.152;11.918;2022-10-16T07:57:16;5.30;;;4.83;;
13218;SDS011;6674;49.152;11.918;2022-10-16T07:59:44;6.00;;;4.77;;
13218;SDS011;6674;49.152;11.918;2022-10-16T08:02:11;4.67;;;4.27;;
13218;SDS011;6674;49.152;11.918;2022-10-16T08:04:38;4.80;;;4.30;;
13218;SDS011;6674;49.152;11.918;2022-10-16T08:07:06;4.37;;;4.00;;
13218;SDS011;6674;49.152;11.918;2022-10-16T08:09:33;3.67;;;2.90;;
13218;SDS011;6674;49.152;11.918;2022-10-16T08:12:00;3.87;;;3.57;;
13218;SDS011;6674;49.152;11.918;2022-10-16T08:14:28;4.40;;;4.00;;
13218;SDS011;6674;49.152;11.918;2022-10-16T08:16:55;4.67;;;4.27;;
13218;SDS011;6674;49.152;11.918;2022-10-16T08:19:21;3.37;;;3.13;;
13218;SDS011;6674;49.152;11.918;2022-10-16T08:21:48;4.93;;;3.53;;
13218;SDS011;6674;49.152;11.918;2022-10-16T08:24:15;4.03;;;3.67;;
13218;SDS011;6674;49.152;11.918;2022-10-16T08:26:41;4.10;;;3.80;;
13218;SDS011;6674;49.152;11.918;2022-10-16T08:29:08;3.70;;;3.40;;
13218;SDS011;6674;49.152;11.918;2022-10-16T08:31:36;3.57;;;3.37;;
13218;SDS011;6674;49.152;11.918;2022-10-16T08:34:03;3.33;;;3.07;;
13218;SDS011;6674;49.152;11.918;2022-10-16T08:36:35;3.90;;;3.50;;
13218;SDS011;6674;49.152;11.918;2022-10-16T08:39:03;3.20;;;2.90;;
13218;SDS011;6674;49.152;11.918;2022-10-16T08:47:39;3.73;;;3.23;;
13218;SDS011;6674;49.152;11.918;2022-10-16T08:50:13;3.80;;;3.50;;
13218;SDS011;6674;49.152;11.918;2022-10-16T08:52:43;3.60;;;3.30;;
13218;SDS011;6674;49.152;11.918;2022-10-16T08:55:16;3.90;;;3.60;;
13218;SDS011;6674;49.152;11.918;2022-10-16T08:57:55;3.93;;;2.97;;
13218;SDS011;6674;49.152;11.918;2022-10-16T09:00:22;3.67;;;2.97;;
13218;SDS011;6674;49.152;11.918;2022-10-16T09:02:52;3.90;;;3.60;;
13218;SDS011;6674;49.152;11.918;2022-10-16T09:05:23;3.23;;;3.00;;
13218;SDS011;6674;49.152;11.918;2022-10-16T09:08:03;3.67;;;3.40;;
13218;SDS011;6674;49.152;11.918;2022-10-16T09:10:43;3.23;;;3.03;;
13218;SDS011;6674;49.152;11.918;2022-10-16T09:13:19;3.30;;;3.03;;
13218;SDS011;6674;49.152;11.918;2022-10-16T09:15:52;4.63;;;3.40;;
13218;SDS011;6674;49.152;11.918;2022-10-16T09:18:29;3.70;;;3.40;;
13218;SDS011;6674;49.152;11.918;2022-10-16T09:21:05;3.63;;;3.33;;
13218;SDS011;6674;49.152;11.918;2022-10-16T09:23:37;3.80;;;3.50;;
13218;SDS011;6674;49.152;11.918;2022-10-16T09:26:05;3.83;;;3.50;;
13218;SDS011;6674;49.152;11.918;2022-10-16T09:28:36;4.33;;;3.93;;
13218;SDS011;6674;49.152;11.918;2022-10-16T09:31:02;4.00;;;3.33;;
13218;SDS011;6674;49.152;11.918;2022-10-16T09:33:37;3.70;;;3.40;;
13218;SDS011;6674;49.152;11.918;2022-10-16T09:36:08;3.60;;;3.27;;
13218;SDS011;6674;49.152;11.918;2022-10-16T09:38:36;3.00;;;2.80;;
13218;SDS011;6674;49.152;11.918;2022-10-16T09:41:03;3.40;;;3.10;;
13218;SDS011;6674;49.152;11.918;2022-10-16T09:43:42;4.50;;;3.53;;
13218;SDS011;6674;49.152;11.918;2022-10-16T09:46:22;3.70;;;3.37;;
13218;SDS011;6674;49.152;11.918;2022-10-16T09:48:54;5.00;;;3.20;;
13218;SDS011;6674;49.152;11.918;2022-10-16T09:51:24;3.50;;;3.23;;
13218;SDS011;6674;49.152;11.918;2022-10-16T09:53:57;3.80;;;3.00;;
13218;SDS011;6674;49.152;11.918;2022-10-16T09:56:26;3.60;;;3.07;;
13218;SDS011;6674;49.152;11.918;2022-10-16T09:58:55;3.20;;;3.00;;
13218;SDS011;6674;49.152;11.918;2022-10-16T10:01:24;4.93;;;3.17;;
13218;SDS011;6674;49.152;11.918;2022-10-16T10:03:57;3.80;;;2.97;;
13218;SDS011;6674;49.152;11.918;2022-10-16T10:06:28;2.63;;;2.43;;
13218;SDS011;6674;49.152;11.918;2022-10-16T10:08:57;2.23;;;2.10;;
13218;SDS011;6674;49.152;11.918;2022-10-16T10:11:38;2.53;;;2.33;;
13218;SDS011;6674;49.152;11.918;2022-10-16T10:14:08;2.67;;;2.47;;
13218;SDS011;6674;49.152;11.918;2022-10-16T10:16:45;2.70;;;2.50;;
13218;SDS011;6674;49.152;11.918;2022-10-16T10:19:15;2.87;;;2.67;;
13218;SDS011;6674;49.152;11.918;2022-10-16T10:21:43;2.53;;;2.33;;
13218;SDS011;6674;49.152;11.918;2022-10-16T10:24:10;3.23;;;2.30;;
13218;SDS011;6674;49.152;11.918;2022-10-16T10:26:38;2.50;;;2.30;;
13218;SDS011;6674;49.152;11.918;2022-10-16T10:29:06;2.30;;;2.10;;
13218;SDS011;6674;49.152;11.918;2022-10-16T10:31:42;4.53;;;2.63;;
13218;SDS011;6674;49.152;11.918;2022-10-16T10:34:19;2.00;;;1.90;;
13218;SDS011;6674;49.152;11.918;2022-10-16T10:36:56;3.17;;;2.37;;
13218;SDS011;6674;49.152;11.918;2022-10-16T10:39:30;2.60;;;2.40;;
13218;SDS011;6674;49.152;11.918;2022-10-16T10:42:07;2.27;;;2.07;;
13218;SDS011;6674;49.152;11.918;2022-10-16T10:44:46;2.53;;;2.33;;
13218;SDS011;6674;49.152;11.918;2022-10-16T10:47:24;2.27;;;1.90;;
13218;SDS011;6674;49.152;11.918;2022-10-16T10:50:02;3.17;;;2.40;;
13218;SDS011;6674;49.152;11.918;2022-10-16T10:52:39;2.30;;;2.10;;
13218;SDS011;6674;49.152;11.918;2022-10-16T10:55:10;2.20;;;2.00;;
13218;SDS011;6674;49.152;11.918;2022-10-16T10:57:46;2.20;;;2.00;;
13218;SDS011;6674;49.152;11.918;2022-10-16T11:00:28;1.80;;;1.70;;
13218;SDS011;6674;49.152;11.918;2022-10-16T11:03:03;2.50;;;1.80;;
13218;SDS011;6674;49.152;11.918;2022-10-16T11:05:43;2.07;;;1.97;;
13218;SDS011;6674;49.152;11.918;2022-10-16T11:08:13;1.63;;;1.53;;
13218;SDS011;6674;49.152;11.918;2022-10-16T11:10:48;2.50;;;1.90;;
13218;SDS011;6674;49.152;11.918;2022-10-16T11:13:21;2.67;;;2.03;;
13218;SDS011;6674;49.152;11.918;2022-10-16T11:15:56;2.10;;;1.90;;
13218;SDS011;6674;49.152;11.918;2022-10-16T11:18:27;2.50;;;2.10;;
13218;SDS011;6674;49.152;11.918;2022-10-16T11:21:03;2.10;;;1.90;;
13218;SDS011;6674;49.152;11.918;2022-10-16T11:23:34;3.43;;;2.17;;
13218;SDS011;6674;49.152;11.918;2022-10-16T11:26:10;1.70;;;1.60;;
13218;SDS011;6674;49.152;11.918;2022-10-16T11:28:42;1.87;;;1.57;;
13218;SDS011;6674;49.152;11.918;2022-10-16T11:31:14;1.73;;;1.63;;
13218;SDS011;6674;49.152;11.918;2022-10-16T11:33:46;2.23;;;1.70;;
13218;SDS011;6674;49.152;11.918;2022-10-16T11:36:19;1.83;;;1.67;;
13218;SDS011;6674;49.152;11.918;2022-10-16T11:38:50;2.20;;;2.00;;
13218;SDS011;6674;49.152;11.918;2022-10-16T11:41:23;2.73;;;2.33;;
13218;SDS011;6674;49.152;11.918;2022-10-16T11:43:57;2.10;;;1.90;;
13218;SDS011;6674;49.152;11.918;2022-10-16T11:46:32;2.43;;;1.90;;
13218;SDS011;6674;49.152;11.918;2022-10-16T11:49:08;2.30;;;2.10;;
13218;SDS011;6674;49.152;11.918;2022-10-16T11:51:43;2.10;;;1.90;;
13218;SDS011;6674;49.152;11.918;2022-10-16T11:54:16;2.30;;;2.10;;
13218;SDS011;6674;49.152;11.918;2022-10-16T11:56:48;2.40;;;2.20;;
13218;SDS011;6674;49.152;11.918;2022-10-16T11:59:18;2.23;;;1.80;;
13218;SDS011;6674;49.152;11.918;2022-10-16T12:01:53;4.13;;;2.00;;
13218;SDS011;6674;49.152;11.918;2022-10-16T12:04:36;3.23;;;1.97;;
13218;SDS011;6674;49.152;11.918;2022-10-16T12:07:13;5.63;;;2.37;;
13218;SDS011;6674;49.152;11.918;2022-10-16T12:09:44;2.37;;;2.17;;
13218;SDS011;6674;49.152;11.918;2022-10-16T12:12:23;4.17;;;2.00;;
13218;SDS011;6674;49.152;11.918;2022-10-16T12:14:59;2.30;;;2.00;;
13218;SDS011;6674;49.152;11.918;2022-10-16T12:17:33;2.17;;;1.60;;
13218;SDS011;6674;49.152;11.918;2022-10-16T12:20:12;2.70;;;1.80;;
13218;SDS011;6674;49.152;11.918;2022-10-16T12:22:49;2.33;;;1.30;;
13218;SDS011;6674;49.152;11.918;2022-10-16T12:25:20;1.97;;;1.33;;
13218;SDS011;6674;49.152;11.918;2022-10-16T12:27:56;1.50;;;1.40;;
13218;SDS011;6674;49.152;11.918;2022-10-16T12:30:26;1.70;;;1.60;;
13218;SDS011;6674;49.152;11.918;2022-10-16T12:32:54;1.50;;;1.40;;
13218;SDS011;6674;49.152;11.918;2022-10-16T12:35:22;1.80;;;1.40;;
13218;SDS011;6674;49.152;11.918;2022-10-16T12:37:53;3.20;;;1.50;;
13218;SDS011;6674;49.152;11.918;2022-10-16T12:40:24;1.30;;;1.20;;
13218;SDS011;6674;49.152;11.918;2022-10-16T12:43:10;2.30;;;1.10;;
13218;SDS011;6674;49.152;11.918;2022-10-16T12:45:38;1.57;;;1.20;;
13218;SDS011;6674;49.152;11.918;2022-10-16T12:48:18;1.40;;;1.30;;
13218;SDS011;6674;49.152;11.918;2022-10-16T12:50:46;1.17;;;1.03;;
13218;SDS011;6674;49.152;11.918;2022-10-16T12:53:18;2.40;;;1.30;;
13218;SDS011;6674;49.152;11.918;2022-10-16T12:55:50;1.53;;;0.90;;
13218;SDS011;6674;49.152;11.918;2022-10-16T12:58:27;1.23;;;1.13;;
13218;SDS011;6674;49.152;11.918;2022-10-16T13:01:16;1.60;;;1.13;;
13218;SDS011;6674;49.152;11.918;2022-10-16T13:04:00;1.10;;;1.00;;
13218;SDS011;6674;49.152;11.918;2022-10-16T13:06:38;1.20;;;1.03;;
13218;SDS011;6674;49.152;11.918;2022-10-16T13:09:16;2.20;;;1.20;;
13218;SDS011;6674;49.152;11.918;2022-10-16T13:11:57;1.20;;;1.10;;
13218;SDS011;6674;49.152;11.918;2022-10-16T13:14:37;1.37;;;1.27;;
13218;SDS011;6674;49.152;11.918;2022-10-16T13:17:25;1.03;;;1.03;;
13218;SDS011;6674;49.152;11.918;2022-10-16T13:20:02;1.60;;;1.10;;
13218;SDS011;6674;49.152;11.918;2022-10-16T13:22:39;1.77;;;1.30;;
13218;SDS011;6674;49.152;11.918;2022-10-16T13:25:18;1.60;;;1.10;;
13218;SDS011;6674;49.152;11.918;2022-10-16T13:27:54;1.37;;;1.10;;
13218;SDS011;6674;49.152;11.918;2022-10-16T13:30:23;1.20;;;1.10;;
13218;SDS011;6674;49.152;11.918;2022-10-16T13:32:53;1.63;;;1.03;;
13218;SDS011;6674;49.152;11.918;2022-10-16T13:35:27;2.03;;;1.27;;
13218;SDS011;6674;49.152;11.918;2022-10-16T13:38:04;2.07;;;1.23;;
13218;SDS011;6674;49.152;11.918;2022-10-16T13:40:47;1.13;;;1.00;;
13218;SDS011;6674;49.152;11.918;2022-10-16T13:43:15;1.50;;;1.20;;
13218;SDS011;6674;49.152;11.918;2022-10-16T13:45:52;1.60;;;1.00;;
13218;SDS011;6674;49.152;11.918;2022-10-16T13:48:19;1.20;;;1.10;;
13218;SDS011;6674;49.152;11.918;2022-10-16T13:50:46;0.73;;;0.70;;
13218;SDS011;6674;49.152;11.918;2022-10-16T13:53:25;1.30;;;1.20;;
13218;SDS011;6674;49.152;11.918;2022-10-16T13:55:53;2.80;;;1.30;;
13218;SDS011;6674;49.152;11.918;2022-10-16T13:58:19;1.47;;;1.20;;
13218;SDS011;6674;49.152;11.918;2022-10-16T14:00:56;1.53;;;1.30;;
13218;SDS011;6674;49.152;11.918;2022-10-16T14:03:25;1.73;;;1.10;;
13218;SDS011;6674;49.152;11.918;2022-10-16T14:05:54;2.07;;;1.27;;
13218;SDS011;6674;49.152;11.918;2022-10-16T14:08:23;3.87;;;1.37;;
13218;SDS011;6674;49.152;11.918;2022-10-16T14:10:54;1.60;;;0.93;;
13218;SDS011;6674;49.152;11.918;2022-10-16T14:13:29;2.73;;;1.30;;
13218;SDS011;6674;49.152;11.918;2022-10-16T14:16:02;3.03;;;1.50;;
13218;SDS011;6674;49.152;11.918;2022-10-16T14:18:32;0.90;;;0.90;;
13218;SDS011;6674;49.152;11.918;2022-10-16T14:21:03;1.67;;;1.23;;
13218;SDS011;6674;49.152;11.918;2022-10-16T14:23:31;1.13;;;1.03;;
13218;SDS011;6674;49.152;11.918;2022-10-16T14:26:14;1.40;;;1.00;;
13218;SDS011;6674;49.152;11.918;2022-10-16T14:28:43;0.83;;;0.83;;
13218;SDS011;6674;49.152;11.918;2022-10-16T14:31:23;1.37;;;1.30;;
13218;SDS011;6674;49.152;11.918;2022-10-16T14:33:51;1.03;;;0.90;;
13218;SDS011;6674;49.152;11.918;2022-10-16T14:36:23;1.07;;;1.07;;
13218;SDS011;6674;49.152;11.918;2022-10-16T14:38:54;2.47;;;1.20;;
13218;SDS011;6674;49.152;11.918;2022-10-16T14:41:40;1.53;;;0.90;;
13218;SDS011;6674;49.152;11.918;2022-10-16T14:44:09;1.53;;;0.90;;
13218;SDS011;6674;49.152;11.918;2022-10-16T14:46:38;1.80;;;1.40;;
13218;SDS011;6674;49.152;11.918;2022-10-16T14:49:13;1.93;;;1.10;;
13218;SDS011;6674;49.152;11.918;2022-10-16T14:51:43;1.33;;;1.23;;
13218;SDS011;6674;49.152;11.918;2022-10-16T14:54:11;1.17;;;0.90;;
13218;SDS011;6674;49.152;11.918;2022-10-16T14:56:43;1.00;;;1.00;;
13218;SDS011;6674;49.152;11.918;2022-10-16T14:59:14;1.30;;;1.20;;
13218;SDS011;6674;49.152;11.918;2022-10-16T15:01:43;1.17;;;1.07;;
13218;SDS011;6674;49.152;11.918;2022-10-16T15:04:11;1.43;;;1.30;;
13218;SDS011;6674;49.152;11.918;2022-10-16T15:06:39;1.30;;;1.20;;
13218;SDS011;6674;49.152;11.918;2022-10-16T15:09:06;2.67;;;1.37;;
13218;SDS011;6674;49.152;11.918;2022-10-16T15:11:32;1.13;;;1.03;;
13218;SDS011;6674;49.152;11.918;2022-10-16T15:14:01;1.37;;;1.27;;
13218;SDS011;6674;49.152;11.918;2022-10-16T15:16:28;1.67;;;1.33;;
13218;SDS011;6674;49.152;11.918;2022-10-16T15:18:55;2.03;;;1.00;;